Time;durP1;ratioP1;P1;durP2;ratioP2;P2;SDS_P1;SDS_P2;PMS_P1;PMS_P2;Temp;Humidity;BMP_temperature;BMP_pressure;BME280_temperature;BME280_humidity;BME280_pressure;Samples;Min_cycle;Max_cycle;Signal;HPM_P1;HPM_P2
2022/11/22 00:01:40;;;;;;;25.80;14.00;;;;;;;;;;4931515;29;20217;-87
2022/11/22 00:04:17;;;;;;;25.70;14.82;;;;;;;;;;4926763;29;20236;-86
2022/11/22 00:06:49;;;;;;;19.83;14.07;;;;;;;;;;4932387;29;20241;-86
2022/11/22 00:09:16;;;;;;;22.98;13.55;;;;;;;;;;4984996;22;20264;-87
2022/11/22 00:11:43;;;;;;;23.63;13.43;;;-1.60;99.90;;;;;;4974797;28;20227;-86
2022/11/22 00:14:10;;;;;;;25.25;13.75;;;-1.70;99.90;;;;;;4964698;29;20689;-86
2022/11/22 00:16:37;;;;;;;23.83;14.55;;;;;;;;;;4961060;29;20223;-87
2022/11/22 00:19:05;;;;;;;19.10;13.63;;;-1.60;99.90;;;;;;4958619;28;20227;-86
2022/11/22 00:21:32;;;;;;;22.90;13.13;;;;;;;;;;4956599;29;20212;-87
2022/11/22 00:24:01;;;;;;;24.70;14.63;;;-1.80;99.90;;;;;;4958564;28;20291;-87
2022/11/22 00:26:28;;;;;;;22.70;13.40;;;-1.40;99.90;;;;;;4959290;29;20218;-87
2022/11/22 00:28:55;;;;;;;28.98;16.02;;;-1.70;99.90;;;;;;4961958;28;20236;-86
2022/11/22 00:31:23;;;;;;;21.23;13.90;;;;;;;;;;4958863;29;20278;-86
2022/11/22 00:33:50;;;;;;;22.35;13.77;;;-1.70;99.90;;;;;;4958798;28;20302;-87
2022/11/22 00:36:17;;;;;;;30.85;13.63;;;-1.70;99.90;;;;;;4958541;28;20222;-86
2022/11/22 00:38:44;;;;;;;29.20;15.63;;;-1.70;99.90;;;;;;4957227;28;20724;-86
2022/11/22 00:41:12;;;;;;;19.55;12.88;;;-1.40;99.90;;;;;;4960027;28;20300;-85
2022/11/22 00:43:39;;;;;;;25.67;13.88;;;;;;;;;;4959747;28;20596;-86
2022/11/22 00:46:06;;;;;;;23.42;14.43;;;-1.60;99.90;;;;;;4959264;28;20263;-86
2022/11/22 00:48:33;;;;;;;23.75;15.02;;;-1.40;99.90;;;;;;4956020;28;20310;-86
2022/11/22 00:51:00;;;;;;;22.98;14.50;;;;;;;;;;4956130;29;20300;-86
2022/11/22 00:53:27;;;;;;;23.30;13.45;;;-1.80;99.90;;;;;;4956353;28;20797;-85
2022/11/22 00:55:54;;;;;;;21.35;14.25;;;-1.40;99.90;;;;;;4956130;29;20222;-86
2022/11/22 00:58:22;;;;;;;25.95;14.00;;;-1.60;99.90;;;;;;4955815;28;20246;-87
2022/11/22 01:00:50;;;;;;;25.45;15.07;;;-1.30;99.90;;;;;;4955601;29;20301;-87
2022/11/22 01:03:21;;;;;;;21.67;13.52;;;-1.40;99.90;;;;;;4956581;29;20218;-87
2022/11/22 01:05:48;;;;;;;24.20;15.63;;;-1.60;99.90;;;;;;4955722;29;20201;-87
2022/11/22 01:08:15;;;;;;;26.92;15.55;;;-1.40;99.90;;;;;;4955868;28;20257;-86
2022/11/22 01:10:42;;;;;;;23.55;14.20;;;-1.60;99.90;;;;;;4956234;28;20683;-86
2022/11/22 01:13:12;;;;;;;25.95;14.52;;;-1.30;99.90;;;;;;4956535;29;20209;-87
2022/11/22 01:15:40;;;;;;;24.98;15.23;;;-1.40;99.90;;;;;;4957191;29;20264;-86
2022/11/22 01:18:08;;;;;;;23.90;14.45;;;-1.70;99.90;;;;;;4958647;28;20236;-85
2022/11/22 01:20:42;;;;;;;19.77;13.95;;;-1.60;99.90;;;;;;4957547;29;20300;-85
2022/11/22 01:23:16;;;;;;;23.00;14.15;;;-1.20;99.90;;;;;;4958002;29;20218;-85
2022/11/22 01:25:47;;;;;;;27.27;14.20;;;-1.60;99.90;;;;;;4957201;29;20604;-86
2022/11/22 01:28:15;;;;;;;24.70;14.55;;;-1.40;99.90;;;;;;4957689;28;20300;-87
2022/11/22 01:30:46;;;;;;;21.02;15.00;;;-1.40;99.90;;;;;;4964014;28;20212;-87
2022/11/22 01:33:22;;;;;;;25.40;14.57;;;-1.40;99.90;;;;;;4958985;29;20216;-87
2022/11/22 01:35:49;;;;;;;19.90;14.32;;;-1.50;99.90;;;;;;4954863;28;20279;-86
2022/11/22 01:38:16;;;;;;;23.55;13.10;;;-1.30;99.90;;;;;;4956116;28;20229;-85
2022/11/22 01:40:43;;;;;;;25.90;16.17;;;-1.50;99.90;;;;;;4956124;29;20238;-85
2022/11/22 01:43:18;;;;;;;21.20;14.48;;;-1.40;99.90;;;;;;4957395;29;20530;-85
2022/11/22 01:45:54;;;;;;;28.95;14.55;;;-0.80;99.90;;;;;;4959509;29;20228;-85
2022/11/22 01:48:29;;;;;;;27.48;14.85;;;-1.70;99.90;;;;;;4954323;28;20747;-85
2022/11/22 01:51:00;;;;;;;24.50;14.20;;;-1.50;99.90;;;;;;4957880;29;20594;-86
2022/11/22 01:53:32;;;;;;;25.70;14.68;;;-1.60;99.90;;;;;;4958167;28;20218;-86
2022/11/22 01:56:06;;;;;;;27.05;15.43;;;-1.20;99.90;;;;;;4958581;29;20250;-86
2022/11/22 01:58:46;;;;;;;26.90;14.40;;;-1.80;99.90;;;;;;4956177;28;20228;-87
2022/11/22 02:01:24;;;;;;;25.45;14.05;;;-1.70;99.90;;;;;;4955973;29;20215;-86
2022/11/22 02:03:58;;;;;;;21.20;13.63;;;-1.50;99.90;;;;;;4956661;28;20683;-86
2022/11/22 02:06:36;;;;;;;24.08;13.48;;;-1.60;99.90;;;;;;4957124;29;20217;-85
2022/11/22 02:09:13;;;;;;;25.27;14.45;;;-1.40;99.90;;;;;;4955471;28;20233;-85
2022/11/22 02:11:46;;;;;;;24.98;14.10;;;-1.70;99.90;;;;;;4956637;28;20192;-86
2022/11/22 02:14:22;;;;;;;24.98;16.20;;;-1.40;99.90;;;;;;4956510;29;20223;-86
2022/11/22 02:16:58;;;;;;;26.77;15.20;;;-1.20;99.90;;;;;;4955464;29;20201;-86
2022/11/22 02:19:38;;;;;;;27.85;16.10;;;-1.80;99.90;;;;;;4955615;28;20233;-86
2022/11/22 02:22:25;;;;;;;26.92;15.65;;;-1.50;99.90;;;;;;4957705;29;20208;-86
2022/11/22 02:25:03;;;;;;;27.35;15.07;;;-1.70;99.90;;;;;;4959488;29;20330;-86
2022/11/22 02:27:39;;;;;;;22.80;14.18;;;-1.30;99.90;;;;;;4961099;28;20228;-86
2022/11/22 02:30:12;;;;;;;21.33;13.05;;;-1.20;99.90;;;;;;4963970;29;20193;-86
2022/11/22 02:32:44;;;;;;;21.77;12.75;;;-1.60;99.90;;;;;;4963412;28;20235;-85
2022/11/22 02:35:20;;;;;;;22.75;13.10;;;-1.40;99.90;;;;;;4957181;29;20212;-85
2022/11/22 02:37:56;;;;;;;23.98;14.10;;;-1.60;99.90;;;;;;4957026;28;20226;-84
2022/11/22 02:40:30;;;;;;;24.70;16.60;;;-1.40;99.90;;;;;;4965500;29;20213;-85
2022/11/22 02:43:07;;;;;;;22.83;13.23;;;-1.40;99.90;;;;;;4965379;28;20216;-85
2022/11/22 02:45:38;;;;;;;34.38;15.57;;;-1.50;99.90;;;;;;4972241;28;20222;-85
2022/11/22 02:48:16;;;;;;;25.27;14.50;;;-1.30;99.90;;;;;;4976350;28;20241;-85
2022/11/22 02:50:43;;;;;;;23.73;15.35;;;-1.70;99.90;;;;;;4976566;28;20240;-85
2022/11/22 02:53:16;;;;;;;26.95;15.18;;;-1.60;99.90;;;;;;4976751;28;20201;-85
2022/11/22 02:55:45;;;;;;;30.30;15.88;;;-1.60;99.90;;;;;;4975463;28;20193;-85
2022/11/22 02:58:16;;;;;;;32.55;17.42;;;-1.60;99.90;;;;;;4976337;28;20232;-86
2022/11/22 03:00:45;;;;;;;25.00;15.02;;;-1.30;99.90;;;;;;4973018;28;20588;-85
2022/11/22 03:03:17;;;;;;;31.85;16.33;;;-1.50;99.90;;;;;;4961513;29;20303;-85
2022/11/22 03:05:49;;;;;;;29.05;15.48;;;-1.80;99.90;;;;;;4959577;28;20280;-85
2022/11/22 03:08:21;;;;;;;29.45;16.55;;;-2.00;99.90;;;;;;4958842;28;20266;-85
2022/11/22 03:10:53;;;;;;;25.48;13.50;;;-1.30;99.90;;;;;;4961529;28;20201;-85
2022/11/22 03:13:24;;;;;;;24.10;15.48;;;-1.70;99.90;;;;;;4958845;28;20189;-85
2022/11/22 03:16:00;;;;;;;26.95;15.32;;;-1.60;99.90;;;;;;4959807;28;20216;-86
2022/11/22 03:18:32;;;;;;;23.55;15.20;;;-1.50;99.90;;;;;;4958099;28;20225;-86
2022/11/22 03:21:07;;;;;;;27.08;15.18;;;-1.70;99.90;;;;;;4959347;29;20244;-86
2022/11/22 03:23:38;;;;;;;26.55;15.00;;;-1.70;99.90;;;;;;4959406;29;20193;-87
2022/11/22 03:26:14;;;;;;;26.98;15.30;;;-2.20;99.90;;;;;;4957909;29;20196;-86
2022/11/22 03:28:46;;;;;;;33.65;15.68;;;-1.90;99.90;;;;;;4957645;28;20239;-87
2022/11/22 03:31:17;;;;;;;24.40;14.13;;;-1.90;99.90;;;;;;4958188;28;20212;-86
2022/11/22 03:33:44;;;;;;;26.05;15.50;;;-1.80;99.90;;;;;;4959152;28;20679;-87
2022/11/22 03:36:12;;;;;;;27.10;14.05;;;;;;;;;;4963185;29;20692;-86
2022/11/22 03:38:40;;;;;;;25.50;16.58;;;-1.70;99.90;;;;;;4961204;28;20236;-86
2022/11/22 03:41:15;;;;;;;28.67;16.13;;;-1.60;99.90;;;;;;4958837;28;20542;-85
2022/11/22 03:43:45;;;;;;;29.77;16.45;;;-1.10;99.90;;;;;;4958998;29;20291;-86
2022/11/22 03:46:15;;;;;;;28.02;15.27;;;-1.50;99.90;;;;;;4963602;28;20208;-86
2022/11/22 03:48:45;;;;;;;24.40;14.63;;;-1.60;99.90;;;;;;4963934;28;20244;-85
2022/11/22 03:51:14;;;;;;;24.75;14.07;;;-1.90;99.90;;;;;;4966919;28;20210;-85
2022/11/22 03:53:41;;;;;;;29.38;15.63;;;-1.40;99.90;;;;;;4965529;29;20204;-86
2022/11/22 03:56:10;;;;;;;28.35;16.23;;;-2.40;99.90;;;;;;4964397;29;20250;-86
2022/11/22 03:58:37;;;;;;;26.67;17.00;;;-1.80;99.90;;;;;;4958747;28;20231;-86
2022/11/22 04:01:05;;;;;;;28.45;17.42;;;-1.60;99.90;;;;;;4959519;29;20236;-86
2022/11/22 04:03:37;;;;;;;29.00;14.85;;;-1.90;99.90;;;;;;4972231;29;20204;-84
2022/11/22 04:06:05;;;;;;;27.42;15.82;;;-2.10;99.90;;;;;;4978874;28;20187;-85
2022/11/22 04:08:33;;;;;;;32.85;17.80;;;-1.80;99.90;;;;;;4975378;28;20229;-85
2022/11/22 04:11:03;;;;;;;29.48;15.48;;;-1.50;99.90;;;;;;4961469;29;20211;-85
2022/11/22 04:16:17;;;;;;;30.15;15.52;;;-1.40;99.90;;;;;;4960426;28;20226;-85
2022/11/22 04:18:44;;;;;;;29.73;16.00;;;-1.50;99.90;;;;;;4961587;28;20257;-84
2022/11/22 04:26:42;;;;;;;33.25;17.80;;;-2.30;99.90;;;;;;4962784;29;20687;-85
2022/11/22 04:29:09;;;;;;;32.47;17.15;;;-2.00;99.90;;;;;;4962329;28;20238;-86
2022/11/22 04:34:23;;;;;;;28.85;16.08;;;-1.40;99.90;;;;;;4959420;29;20244;-85
2022/11/22 04:36:55;;;;;;;33.63;16.65;;;-1.70;99.90;;;;;;4959549;28;20300;-86
2022/11/22 04:39:27;;;;;;;36.03;16.23;;;-1.60;99.90;;;;;;4960745;28;20245;-85
2022/11/22 04:44:41;;;;;;;34.90;19.42;;;-1.50;99.90;;;;;;4970496;28;20192;-85
2022/11/22 04:47:57;;;;;;;43.33;18.25;;;-1.30;99.90;;;;;;4962505;29;20206;-86
2022/11/22 04:52:56;;;;;;;35.53;18.77;;;-0.90;99.90;;;;;;4959516;28;20642;-85
2022/11/22 04:55:26;;;;;;;38.08;19.30;;;-1.30;99.90;;;;;;4960446;29;20189;-85
2022/11/22 04:57:54;;;;;;;33.03;16.85;;;-1.70;99.90;;;;;;4960478;28;20300;-86
2022/11/22 05:00:30;;;;;;;36.90;18.02;;;-1.50;99.90;;;;;;4959599;29;20235;-86
2022/11/22 05:03:06;;;;;;;44.08;21.40;;;-1.30;99.90;;;;;;4958672;29;20456;-85
2022/11/22 05:05:37;;;;;;;46.35;22.52;;;-1.30;99.90;;;;;;4959207;28;20760;-86
2022/11/22 05:08:05;;;;;;;32.97;20.30;;;-1.40;99.90;;;;;;4962302;28;20325;-86
2022/11/22 05:10:55;;;;;;;45.53;20.63;;;-1.50;99.90;;;;;;4963653;28;20209;-84
2022/11/22 05:13:26;;;;;;;41.78;20.70;;;-1.30;99.90;;;;;;4967147;28;20218;-85
2022/11/22 05:15:54;;;;;;;46.90;20.30;;;-1.30;99.90;;;;;;4968577;29;20183;-85
2022/11/22 05:18:24;;;;;;;38.55;20.40;;;-1.20;99.90;;;;;;4962680;28;20230;-85
2022/11/22 05:21:02;;;;;;;43.42;19.45;;;-1.20;99.90;;;;;;4966721;28;20255;-85
2022/11/22 05:29:11;;;;;;;38.90;20.25;;;-1.20;99.90;;;;;;4963973;28;20255;-86
2022/11/22 05:31:57;;;;;;;30.30;17.52;;;-1.20;99.90;;;;;;4969593;28;20202;-85
2022/11/22 05:34:36;;;;;;;48.10;25.27;;;;;;;;;;4959528;28;20498;-85
2022/11/22 05:37:09;;;;;;;44.13;22.50;;;;;;;;;;4957914;28;20276;-86
2022/11/22 05:39:41;;;;;;;48.28;19.73;;;;;;;;;;4958484;28;20229;-85
2022/11/22 05:42:11;;;;;;;40.63;19.17;;;;;;;;;;4958516;28;20214;-85
2022/11/22 05:44:43;;;;;;;44.25;20.27;;;-1.10;99.90;;;;;;4958205;28;20245;-85
2022/11/22 05:47:16;;;;;;;40.05;19.60;;;-2.00;99.90;;;;;;4957335;29;20217;-85
2022/11/22 05:49:45;;;;;;;41.50;19.55;;;-1.10;99.90;;;;;;4957223;28;20553;-85
2022/11/22 05:52:18;;;;;;;44.42;22.48;;;-1.00;99.90;;;;;;4961857;29;20463;-85
2022/11/22 05:54:54;;;;;;;47.70;21.33;;;-1.50;99.90;;;;;;4967483;29;20475;-84
2022/11/22 05:57:29;;;;;;;57.15;21.98;;;-1.10;99.90;;;;;;4972799;29;20285;-85
2022/11/22 06:00:01;;;;;;;41.70;20.33;;;;;;;;;;4974339;29;20190;-84
2022/11/22 06:02:45;;;;;;;39.83;18.23;;;-1.00;99.90;;;;;;4969574;28;20713;-83
2022/11/22 06:05:14;;;;;;;41.35;19.83;;;-1.20;99.90;;;;;;4963841;29;20640;-83
2022/11/22 06:07:41;;;;;;;44.58;20.63;;;;;;;;;;4960951;28;20303;-83
2022/11/22 06:10:11;;;;;;;35.65;18.45;;;-1.20;99.90;;;;;;4960513;28;20251;-84
2022/11/22 06:12:40;;;;;;;48.30;20.05;;;-1.00;99.90;;;;;;4960604;28;20216;-84
2022/11/22 06:15:08;;;;;;;36.22;20.13;;;-0.70;99.90;;;;;;4961029;29;20213;-83
2022/11/22 06:17:36;;;;;;;37.88;18.77;;;-1.20;99.90;;;;;;4960682;28;20287;-85
2022/11/22 06:20:03;;;;;;;40.75;19.95;;;-0.90;99.90;;;;;;4960634;28;20209;-85
2022/11/22 06:22:32;;;;;;;35.67;17.27;;;-0.60;99.90;;;;;;4961068;29;20754;-85
2022/11/22 06:25:04;;;;;;;43.33;19.00;;;-1.00;99.90;;;;;;4960206;29;20208;-85
2022/11/22 06:27:36;;;;;;;40.33;18.77;;;-1.00;99.90;;;;;;4956948;28;20248;-85
2022/11/22 06:30:08;;;;;;;47.00;22.17;;;-0.60;99.90;;;;;;4957974;28;20222;-86
2022/11/22 06:32:41;;;;;;;43.47;21.10;;;-0.90;99.90;;;;;;4966460;28;20197;-85
2022/11/22 06:35:12;;;;;;;40.85;18.52;;;;;;;;;;4977572;28;20197;-84
2022/11/22 06:37:46;;;;;;;37.78;18.48;;;-0.60;99.90;;;;;;4979816;28;20202;-84
2022/11/22 06:40:19;;;;;;;30.73;17.98;;;-1.00;99.90;;;;;;4980596;28;20232;-84
2022/11/22 06:42:46;;;;;;;37.55;19.70;;;-0.50;99.90;;;;;;4979795;28;20189;-84
2022/11/22 06:45:18;;;;;;;39.38;18.92;;;-0.70;99.90;;;;;;4980263;28;20201;-84
2022/11/22 06:47:45;;;;;;;37.28;18.27;;;-0.60;99.90;;;;;;4979869;28;20225;-84
2022/11/22 06:50:12;;;;;;;37.85;18.15;;;-0.50;99.90;;;;;;4966096;29;20687;-85
2022/11/22 06:52:50;;;;;;;31.90;19.65;;;-1.00;99.90;;;;;;4962010;28;20308;-85
2022/11/22 06:55:18;;;;;;;35.63;19.20;;;;;;;;;;4962879;29;20292;-86
2022/11/22 06:57:48;;;;;;;36.60;19.33;;;-0.70;99.90;;;;;;4961372;28;20684;-86
2022/11/22 07:00:19;;;;;;;35.55;18.38;;;-0.90;99.90;;;;;;4969973;28;20204;-85
2022/11/22 07:02:49;;;;;;;39.80;20.10;;;-0.40;99.90;;;;;;4972327;29;20250;-84
2022/11/22 07:05:20;;;;;;;33.85;19.25;;;-0.60;99.90;;;;;;4968762;29;20232;-85
2022/11/22 07:07:49;;;;;;;37.38;19.05;;;0.10;99.90;;;;;;4971998;28;20240;-84
2022/11/22 07:10:16;;;;;;;30.88;18.38;;;-0.50;99.90;;;;;;4970383;29;20236;-86
2022/11/22 07:12:46;;;;;;;34.33;17.48;;;-0.70;99.90;;;;;;4963079;29;20237;-85
2022/11/22 07:15:13;;;;;;;42.28;19.05;;;-0.40;99.90;;;;;;4959257;29;20213;-85
2022/11/22 07:17:40;;;;;;;41.13;18.58;;;-0.50;99.90;;;;;;4963811;28;20280;-85
2022/11/22 07:20:08;;;;;;;32.47;17.33;;;-0.50;99.90;;;;;;4964824;29;20221;-85
2022/11/22 07:22:35;;;;;;;40.15;22.13;;;-0.50;99.90;;;;;;4963551;28;20296;-84
2022/11/22 07:25:08;;;;;;;38.92;19.10;;;;;;;;;;4960683;29;20323;-85
2022/11/22 07:27:38;;;;;;;33.25;17.58;;;;;;;;;;4960969;28;20217;-85
2022/11/22 07:30:08;;;;;;;31.55;18.20;;;;;;;;;;4961831;28;20282;-85
2022/11/22 07:32:35;;;;;;;35.35;19.02;;;;;;;;;;4963296;29;20208;-85
2022/11/22 07:35:03;;;;;;;35.53;18.73;;;;;;;;;;4966078;28;20277;-85
2022/11/22 07:37:31;;;;;;;36.35;18.52;;;;;;;;;;4968774;28;20209;-85
2022/11/22 07:40:01;;;;;;;34.08;19.02;;;;;;;;;;4968075;28;20219;-84
2022/11/22 07:43:01;;;;;;;40.47;18.92;;;-0.50;99.90;;;;;;4967331;28;20259;-85
2022/11/22 07:45:31;;;;;;;45.20;19.75;;;;;;;;;;4953952;29;20220;-85
2022/11/22 07:47:59;;;;;;;30.73;17.20;;;;;;;;;;4968585;28;20287;-84
2022/11/22 07:50:27;;;;;;;43.15;20.50;;;;;;;;;;4972261;28;20702;-84
2022/11/22 07:52:59;;;;;;;42.30;20.17;;;;;;;;;;4978866;28;20196;-84
2022/11/22 08:01:11;;;;;;;34.35;18.42;;;-0.30;99.90;;;;;;4963435;29;20216;-85
2022/11/22 08:03:39;;;;;;;38.00;19.45;;;;;;;;;;4960655;29;20245;-84
2022/11/22 08:09:04;;;;;;;28.38;16.45;;;;;;;;;;4957012;28;20226;-85
2022/11/22 08:11:31;;;;;;;36.83;18.98;;;;;;;;;;4959061;28;20202;-85
2022/11/22 08:14:00;;;;;;;39.08;20.13;;;;;;;;;;4958515;28;20213;-85
2022/11/22 08:16:27;;;;;;;42.92;19.17;;;;;;;;;;4958350;28;20244;-85
2022/11/22 08:18:54;;;;;;;34.40;18.42;;;-0.30;99.90;;;;;;4959442;28;20269;-85
2022/11/22 08:21:21;;;;;;;33.72;17.65;;;-0.10;99.90;;;;;;4962855;29;20275;-84
2022/11/22 08:23:48;;;;;;;44.42;18.35;;;-0.40;99.90;;;;;;4976082;28;20246;-84
2022/11/22 08:26:17;;;;;;;44.92;18.58;;;0.00;99.90;;;;;;4970452;28;20240;-84
2022/11/22 08:28:44;;;;;;;39.20;20.60;;;-0.20;99.90;;;;;;4960874;28;20317;-85
2022/11/22 08:31:15;;;;;;;39.83;21.05;;;-0.20;99.90;;;;;;4959441;29;20210;-84
2022/11/22 08:33:42;;;;;;;44.78;20.20;;;-0.30;99.90;;;;;;4960523;29;20214;-85
2022/11/22 08:36:09;;;;;;;36.60;20.75;;;-0.20;99.90;;;;;;4958374;29;20214;-85
2022/11/22 08:38:36;;;;;;;45.17;21.90;;;0.00;99.90;;;;;;4960559;28;20657;-85
2022/11/22 08:41:03;;;;;;;35.40;17.50;;;-0.20;99.90;;;;;;4961654;29;20242;-85
2022/11/22 08:43:30;;;;;;;45.15;19.70;;;-0.20;99.90;;;;;;4959064;28;20209;-86
2022/11/22 08:46:00;;;;;;;43.33;18.58;;;-0.30;99.90;;;;;;4956177;29;20754;-86
2022/11/22 08:48:30;;;;;;;42.72;19.90;;;-0.10;99.90;;;;;;4957140;28;20226;-87
2022/11/22 08:51:00;;;;;;;43.97;20.67;;;-0.40;99.90;;;;;;4959633;29;20294;-86
2022/11/22 08:53:28;;;;;;;46.00;20.35;;;;;;;;;;4958934;29;20298;-86
2022/11/22 08:55:56;;;;;;;35.30;17.42;;;0.00;99.90;;;;;;4957695;28;20260;-86
2022/11/22 08:58:38;;;;;;;;;;;;;;;;;;;;;
2022/11/22 09:04:19;;;;;;;44.58;21.25;;;-0.10;99.90;;;;;;4964170;28;20209;-85
2022/11/22 09:16:04;;;;;;;45.40;21.63;;;;;;;;;;5010384;28;20237;-84
2022/11/22 09:22:17;;;;;;;39.63;19.80;;;;;;;;;;4989389;28;20217;-86
2022/11/22 09:27:38;;;;;;;38.08;19.48;;;;;;;;;;4950089;29;20189;-86
2022/11/22 09:30:14;;;;;;;43.42;21.55;;;;;;;;;;4954065;28;20264;-85
2022/11/22 09:32:43;;;;;;;39.80;20.77;;;0.20;99.90;;;;;;4981972;28;20213;-86
2022/11/22 09:35:16;;;;;;;43.10;22.52;;;;;;;;;;4985924;28;20215;-86
2022/11/22 09:37:47;;;;;;;47.28;21.40;;;;;;;;;;4992840;28;20228;-86
2022/11/22 09:40:15;;;;;;;46.65;20.75;;;;;;;;;;4978743;28;20225;-86
2022/11/22 09:43:05;;;;;;;46.53;22.92;;;0.20;99.90;;;;;;4977910;28;20202;-86
2022/11/22 09:46:05;;;;;;;45.20;22.35;;;0.20;99.90;;;;;;4986641;28;20198;-86
2022/11/22 09:48:51;;;;;;;47.60;20.77;;;0.20;99.90;;;;;;4980511;28;20251;-86
2022/11/22 09:51:25;;;;;;;46.08;23.23;;;0.30;99.90;;;;;;4974088;28;20221;-86
2022/11/22 09:54:00;;;;;;;46.47;20.67;;;0.30;99.90;;;;;;4975594;28;20691;-86
2022/11/22 09:56:30;;;;;;;44.58;22.48;;;;;;;;;;4975507;28;20213;-86
2022/11/22 09:59:17;;;;;;;45.30;20.23;;;0.30;99.90;;;;;;4975417;28;20236;-87
2022/11/22 10:01:56;;;;;;;42.95;21.52;;;0.30;99.90;;;;;;4975087;28;20624;-86
2022/11/22 10:04:46;;;;;;;45.00;22.40;;;0.40;99.90;;;;;;4979993;28;20205;-86
2022/11/22 10:07:21;;;;;;;38.50;19.40;;;0.40;99.90;;;;;;4989141;28;20208;-86
2022/11/22 10:10:05;;;;;;;34.60;20.00;;;0.40;99.90;;;;;;4975995;28;20263;-85
2022/11/22 10:12:50;;;;;;;48.20;19.70;;;0.40;99.90;;;;;;4982101;28;20232;-86
2022/11/22 10:15:23;;;;;;;44.50;22.17;;;;;;;;;;4995250;28;20224;-86
2022/11/22 10:18:00;;;;;;;45.40;20.77;;;0.40;99.90;;;;;;4995208;28;20202;-86
2022/11/22 10:20:29;;;;;;;53.70;22.50;;;0.50;99.90;;;;;;4996244;28;20189;-86
2022/11/22 10:23:16;;;;;;;;;;;;;;;;;;;;;
2022/11/22 10:25:52;;;;;;;53.35;21.63;;;0.50;99.90;;;;;;4996207;28;20214;-86
2022/11/22 10:28:44;;;;;;;33.92;19.90;;;0.60;99.90;;;;;;4996098;28;20209;-86
2022/11/22 10:31:30;;;;;;;50.15;22.27;;;0.70;99.90;;;;;;4995985;28;20226;-86
2022/11/22 10:37:35;;;;;;;43.42;21.92;;;0.60;99.90;;;;;;4998167;28;20351;-85
2022/11/22 10:40:24;;;;;;;35.08;18.23;;;0.60;99.90;;;;;;4986915;28;20217;-86
2022/11/22 10:43:15;;;;;;;39.35;19.85;;;0.70;99.90;;;;;;4994357;28;20246;-86
2022/11/22 10:45:50;;;;;;;40.05;21.50;;;0.80;99.90;;;;;;4989826;28;20669;-86
2022/11/22 10:48:27;;;;;;;44.53;20.95;;;0.80;99.90;;;;;;4991719;28;20229;-86
2022/11/22 10:51:20;;;;;;;45.78;23.30;;;0.90;99.90;;;;;;4984720;28;20232;-86
2022/11/22 10:57:04;;;;;;;44.70;21.70;;;1.00;99.90;;;;;;4978139;28;20285;-86
2022/11/22 11:00:02;;;;;;;47.97;22.15;;;1.00;99.90;;;;;;4974739;28;20247;-86
2022/11/22 11:03:02;;;;;;;37.65;21.73;;;1.00;99.90;;;;;;4977052;28;20206;-86
2022/11/22 11:05:38;;;;;;;40.42;19.77;;;1.00;99.90;;;;;;4977102;28;20221;-86
2022/11/22 11:08:10;;;;;;;37.75;20.17;;;1.00;99.90;;;;;;4973312;28;20229;-86
2022/11/22 11:10:52;;;;;;;34.72;18.20;;;1.00;99.90;;;;;;4978992;28;20240;-85
2022/11/22 11:13:46;;;;;;;50.15;23.85;;;1.10;99.90;;;;;;4979157;28;20818;-85
2022/11/22 11:16:26;;;;;;;36.88;20.70;;;1.10;99.90;;;;;;4976957;28;20210;-86
2022/11/22 11:19:34;;;;;;;43.45;21.17;;;1.20;99.90;;;;;;4979623;28;20226;-87
2022/11/22 11:24:58;;;;;;;31.60;19.08;;;;;;;;;;4979084;28;20241;-86
2022/11/22 11:27:31;;;;;;;45.40;21.75;;;1.30;99.90;;;;;;4977332;28;20241;-85
2022/11/22 11:30:12;;;;;;;34.75;19.90;;;1.20;99.90;;;;;;4980964;28;20233;-86
2022/11/22 11:33:04;;;;;;;45.92;20.90;;;;;;;;;;4989135;28;20220;-86
2022/11/22 11:35:49;;;;;;;41.65;19.98;;;;;;;;;;4993161;28;20206;-86
2022/11/22 11:38:34;;;;;;;44.33;19.73;;;;;;;;;;4989708;28;20233;-86
2022/11/22 11:44:56;;;;;;;40.20;19.65;;;1.40;99.90;;;;;;4988129;28;20202;-86
2022/11/22 11:47:57;;;;;;;40.70;20.65;;;;;;;;;;4986410;28;20206;-86
2022/11/22 11:53:41;;;;;;;34.20;21.27;;;;;;;;;;4984123;28;20221;-86
2022/11/22 12:00:32;;;;;;;;;;;;;;;;;;;;;
2022/11/22 12:03:40;;;;;;;41.97;19.42;;;1.60;99.90;;;;;;4980594;28;20610;-86
2022/11/22 12:06:44;;;;;;;41.53;21.48;;;1.60;99.90;;;;;;4985490;28;20248;-86
2022/11/22 12:09:28;;;;;;;37.53;19.38;;;1.40;99.90;;;;;;5005208;22;20260;-85
2022/11/22 12:12:03;;;;;;;36.55;20.77;;;1.50;99.90;;;;;;4966306;29;20215;-85
2022/11/22 12:14:34;;;;;;;40.22;21.30;;;2.10;99.90;;;;;;4969466;29;20191;-84
2022/11/22 12:17:07;;;;;;;40.40;21.77;;;1.70;99.90;;;;;;4966849;29;20217;-83
2022/11/22 12:19:44;;;;;;;38.88;21.95;;;1.60;99.90;;;;;;4965133;28;20788;-85
2022/11/22 12:22:18;;;;;;;48.58;22.92;;;1.80;99.90;;;;;;4963091;29;20273;-83
2022/11/22 12:24:52;;;;;;;40.55;21.75;;;1.80;99.90;;;;;;4962403;29;20195;-84
2022/11/22 12:27:19;;;;;;;38.45;20.60;;;1.70;99.90;;;;;;4964057;28;20625;-84
2022/11/22 12:29:46;;;;;;;40.58;19.90;;;;;;;;;;4963008;28;20258;-85
2022/11/22 12:32:18;;;;;;;40.10;21.75;;;2.20;99.90;;;;;;4962816;28;20241;-84
2022/11/22 12:34:57;;;;;;;40.97;22.50;;;2.00;99.90;;;;;;4963031;29;20191;-85
2022/11/22 12:37:29;;;;;;;38.30;21.67;;;1.90;99.90;;;;;;4966730;28;20214;-84
2022/11/22 12:40:01;;;;;;;39.28;20.92;;;2.20;99.90;;;;;;4963231;28;20692;-85
2022/11/22 12:42:33;;;;;;;32.03;20.70;;;1.70;99.90;;;;;;4963038;29;20655;-85
2022/11/22 12:45:04;;;;;;;46.30;23.27;;;1.70;99.90;;;;;;4964337;28;20191;-84
2022/11/22 12:47:35;;;;;;;40.20;21.83;;;2.10;99.90;;;;;;4966527;29;20273;-85
2022/11/22 12:50:10;;;;;;;39.70;19.52;;;1.50;99.90;;;;;;4972630;28;20258;-83
2022/11/22 12:52:42;;;;;;;45.92;22.85;;;1.60;99.90;;;;;;4974697;29;20221;-83
2022/11/22 12:55:16;;;;;;;43.28;22.67;;;1.80;99.90;;;;;;4973816;29;20251;-83
2022/11/22 12:57:50;;;;;;;41.63;20.85;;;1.70;99.90;;;;;;4974417;28;20186;-83
2022/11/22 13:00:20;;;;;;;41.35;21.30;;;1.70;99.90;;;;;;4974493;28;20195;-84
2022/11/22 13:02:59;;;;;;;43.90;21.52;;;2.80;99.90;;;;;;4976497;29;20198;-86
2022/11/22 13:05:31;;;;;;;44.25;22.10;;;2.00;99.90;;;;;;4974001;29;20226;-82
2022/11/22 13:08:08;;;;;;;43.15;20.95;;;1.80;99.90;;;;;;4969133;28;20218;-84
2022/11/22 13:10:40;;;;;;;39.42;20.05;;;2.20;99.90;;;;;;4967397;29;20210;-85
2022/11/22 13:13:17;;;;;;;44.10;23.30;;;1.70;99.90;;;;;;4966583;28;20218;-85
2022/11/22 13:15:45;;;;;;;41.92;23.77;;;2.00;99.90;;;;;;4962715;29;20218;-85
2022/11/22 13:18:15;;;;;;;43.10;22.35;;;1.60;99.90;;;;;;4963170;28;20261;-85
2022/11/22 13:20:53;;;;;;;42.42;23.13;;;2.10;99.90;;;;;;4962629;29;20191;-85
2022/11/22 13:23:37;;;;;;;42.47;20.90;;;2.10;99.90;;;;;;4964537;29;20234;-84
2022/11/22 13:26:09;;;;;;;40.33;22.15;;;2.20;99.90;;;;;;4963450;29;20641;-86
2022/11/22 13:28:39;;;;;;;45.83;22.42;;;1.80;99.90;;;;;;4962458;28;20662;-84
2022/11/22 13:31:24;;;;;;;40.08;22.15;;;2.10;99.90;;;;;;4961009;29;20286;-85
2022/11/22 13:33:58;;;;;;;42.75;21.83;;;1.50;99.90;;;;;;4962647;28;20201;-84
2022/11/22 13:36:37;;;;;;;43.28;21.88;;;1.90;99.90;;;;;;4962400;28;20197;-85
2022/11/22 13:39:10;;;;;;;38.05;21.73;;;1.90;99.90;;;;;;4961148;28;20231;-85
2022/11/22 13:41:40;;;;;;;42.67;21.02;;;1.70;99.90;;;;;;4961820;29;20274;-85
2022/11/22 13:44:33;;;;;;;41.05;21.10;;;1.90;99.90;;;;;;4965447;29;20202;-84
2022/11/22 13:47:02;;;;;;;37.10;21.90;;;2.00;99.90;;;;;;4968975;29;20195;-85
2022/11/22 13:49:36;;;;;;;40.72;21.58;;;2.30;99.90;;;;;;4968358;28;20289;-85
2022/11/22 13:52:25;;;;;;;42.53;21.73;;;2.10;99.90;;;;;;4963017;28;20214;-84
2022/11/22 13:55:02;;;;;;;39.92;21.75;;;2.40;99.90;;;;;;4964826;29;20263;-84
2022/11/22 13:57:33;;;;;;;39.47;22.65;;;1.90;99.90;;;;;;4972384;29;20191;-83
2022/11/22 14:00:44;;;;;;;40.95;21.33;;;1.80;99.90;;;;;;4973941;28;20258;-84
2022/11/22 14:03:27;;;;;;;36.53;20.10;;;2.20;99.90;;;;;;4938037;29;20266;-85
2022/11/22 14:05:56;;;;;;;42.42;21.27;;;2.00;99.90;;;;;;4971495;28;20201;-84
2022/11/22 14:08:32;;;;;;;38.92;21.42;;;2.00;99.90;;;;;;4966598;28;20261;-85
2022/11/22 14:11:17;;;;;;;39.60;21.15;;;1.90;99.90;;;;;;4961662;28;20232;-85
2022/11/22 14:13:52;;;;;;;42.55;21.80;;;2.40;99.90;;;;;;4961425;28;20250;-83
2022/11/22 14:16:38;;;;;;;47.05;22.58;;;1.90;99.90;;;;;;4963965;28;20199;-84
2022/11/22 14:19:19;;;;;;;47.72;22.48;;;2.30;99.90;;;;;;4970612;28;20230;-84
2022/11/22 14:22:11;;;;;;;45.30;25.48;;;1.60;99.90;;;;;;4970541;29;20187;-84
2022/11/22 14:24:57;;;;;;;43.65;21.20;;;2.00;99.90;;;;;;4969647;29;20195;-86
2022/11/22 14:27:34;;;;;;;49.45;24.63;;;2.00;99.90;;;;;;4969424;29;20222;-83
2022/11/22 14:30:22;;;;;;;42.15;23.95;;;2.30;99.90;;;;;;4969023;28;20265;-82
2022/11/22 14:32:53;;;;;;;46.78;22.42;;;2.00;99.90;;;;;;4968139;28;20217;-86
2022/11/22 14:35:29;;;;;;;42.20;22.02;;;2.20;99.90;;;;;;4966004;28;20214;-85